sensor_id;sensor_type;location;lat;lon;timestamp;temperature;humidity
13610;DHT22;6876;50.788;4.940;2022-08-03T00:01:43;21.20;99.90
13610;DHT22;6876;50.788;4.940;2022-08-03T00:04:30;21.10;99.90
13610;DHT22;6876;50.788;4.940;2022-08-03T00:07:18;21.10;99.90
13610;DHT22;6876;50.788;4.940;2022-08-03T00:10:06;20.90;99.90
13610;DHT22;6876;50.788;4.940;2022-08-03T00:12:53;20.90;99.90
13610;DHT22;6876;50.788;4.940;2022-08-03T00:15:42;20.90;99.90
13610;DHT22;6876;50.788;4.940;2022-08-03T00:18:31;20.80;99.90
13610;DHT22;6876;50.788;4.940;2022-08-03T00:21:19;20.80;99.90
13610;DHT22;6876;50.788;4.940;2022-08-03T00:24:06;20.80;99.90
13610;DHT22;6876;50.788;4.940;2022-08-03T00:26:53;20.80;99.90
13610;DHT22;6876;50.788;4.940;2022-08-03T00:29:40;20.70;99.90
13610;DHT22;6876;50.788;4.940;2022-08-03T00:32:27;20.60;99.90
13610;DHT22;6876;50.788;4.940;2022-08-03T00:35:16;20.50;99.90
13610;DHT22;6876;50.788;4.940;2022-08-03T00:38:04;20.50;99.90
13610;DHT22;6876;50.788;4.940;2022-08-03T00:40:51;20.40;99.90
13610;DHT22;6876;50.788;4.940;2022-08-03T00:43:38;20.50;99.90
13610;DHT22;6876;50.788;4.940;2022-08-03T00:46:25;20.50;99.90
13610;DHT22;6876;50.788;4.940;2022-08-03T00:49:13;20.60;99.90
13610;DHT22;6876;50.788;4.940;2022-08-03T00:52:01;20.40;99.90
13610;DHT22;6876;50.788;4.940;2022-08-03T00:54:49;20.40;99.90
13610;DHT22;6876;50.788;4.940;2022-08-03T00:57:36;20.30;99.90
13610;DHT22;6876;50.788;4.940;2022-08-03T01:00:25;20.20;99.90
13610;DHT22;6876;50.788;4.940;2022-08-03T01:03:12;20.20;99.90
13610;DHT22;6876;50.788;4.940;2022-08-03T01:06:04;20.10;99.90
13610;DHT22;6876;50.788;4.940;2022-08-03T01:09:03;20.00;99.90
13610;DHT22;6876;50.788;4.940;2022-08-03T01:11:58;20.00;99.90
13610;DHT22;6876;50.788;4.940;2022-08-03T01:14:59;19.80;99.90
13610;DHT22;6876;50.788;4.940;2022-08-03T01:17:54;19.80;99.90
13610;DHT22;6876;50.788;4.940;2022-08-03T01:20:44;19.80;99.90
13610;DHT22;6876;50.788;4.940;2022-08-03T01:23:50;19.70;99.90
13610;DHT22;6876;50.788;4.940;2022-08-03T01:27:09;19.80;99.90
13610;DHT22;6876;50.788;4.940;2022-08-03T01:30:03;19.80;99.90
13610;DHT22;6876;50.788;4.940;2022-08-03T01:32:54;19.80;99.90
13610;DHT22;6876;50.788;4.940;2022-08-03T01:35:47;19.70;99.90
13610;DHT22;6876;50.788;4.940;2022-08-03T01:38:41;19.50;99.90
13610;DHT22;6876;50.788;4.940;2022-08-03T01:41:32;19.50;99.90
13610;DHT22;6876;50.788;4.940;2022-08-03T01:44:21;19.40;99.90
13610;DHT22;6876;50.788;4.940;2022-08-03T01:47:11;19.30;99.90
13610;DHT22;6876;50.788;4.940;2022-08-03T01:49:59;19.30;99.90
13610;DHT22;6876;50.788;4.940;2022-08-03T01:52:48;19.30;99.90
13610;DHT22;6876;50.788;4.940;2022-08-03T01:55:37;19.40;99.90
13610;DHT22;6876;50.788;4.940;2022-08-03T01:58:26;19.40;99.90
13610;DHT22;6876;50.788;4.940;2022-08-03T02:01:15;19.40;99.90
13610;DHT22;6876;50.788;4.940;2022-08-03T02:04:05;19.30;99.90
13610;DHT22;6876;50.788;4.940;2022-08-03T02:06:54;19.20;99.90
13610;DHT22;6876;50.788;4.940;2022-08-03T02:09:44;19.10;99.90
13610;DHT22;6876;50.788;4.940;2022-08-03T02:12:34;19.10;99.90
13610;DHT22;6876;50.788;4.940;2022-08-03T02:15:23;19.10;99.90
13610;DHT22;6876;50.788;4.940;2022-08-03T02:18:10;19.30;99.90
13610;DHT22;6876;50.788;4.940;2022-08-03T02:21:01;19.20;99.90
13610;DHT22;6876;50.788;4.940;2022-08-03T02:23:49;19.20;99.90
13610;DHT22;6876;50.788;4.940;2022-08-03T02:26:39;19.20;99.90
13610;DHT22;6876;50.788;4.940;2022-08-03T02:29:30;19.10;99.90
13610;DHT22;6876;50.788;4.940;2022-08-03T02:32:22;19.10;99.90
13610;DHT22;6876;50.788;4.940;2022-08-03T02:35:12;19.20;99.90
13610;DHT22;6876;50.788;4.940;2022-08-03T02:38:04;19.10;99.90
13610;DHT22;6876;50.788;4.940;2022-08-03T02:40:54;19.20;99.90
13610;DHT22;6876;50.788;4.940;2022-08-03T02:43:45;19.20;99.90
13610;DHT22;6876;50.788;4.940;2022-08-03T02:46:37;19.10;99.90
13610;DHT22;6876;50.788;4.940;2022-08-03T02:49:26;19.10;99.90
13610;DHT22;6876;50.788;4.940;2022-08-03T02:52:14;19.00;99.90
13610;DHT22;6876;50.788;4.940;2022-08-03T02:55:06;19.00;99.90
13610;DHT22;6876;50.788;4.940;2022-08-03T02:57:56;19.00;99.90
13610;DHT22;6876;50.788;4.940;2022-08-03T03:00:44;19.00;99.90
13610;DHT22;6876;50.788;4.940;2022-08-03T03:03:32;19.00;99.90
13610;DHT22;6876;50.788;4.940;2022-08-03T03:06:21;19.00;99.90
13610;DHT22;6876;50.788;4.940;2022-08-03T03:09:09;19.00;99.90
13610;DHT22;6876;50.788;4.940;2022-08-03T03:11:58;19.10;99.90
13610;DHT22;6876;50.788;4.940;2022-08-03T03:14:46;19.00;99.90
13610;DHT22;6876;50.788;4.940;2022-08-03T03:17:34;19.10;99.90
13610;DHT22;6876;50.788;4.940;2022-08-03T03:20:23;19.00;99.90
13610;DHT22;6876;50.788;4.940;2022-08-03T03:23:11;19.00;99.90
13610;DHT22;6876;50.788;4.940;2022-08-03T03:25:59;18.90;99.90
13610;DHT22;6876;50.788;4.940;2022-08-03T03:28:48;18.90;99.90
13610;DHT22;6876;50.788;4.940;2022-08-03T03:31:36;19.00;99.90
13610;DHT22;6876;50.788;4.940;2022-08-03T03:34:23;19.00;99.90
13610;DHT22;6876;50.788;4.940;2022-08-03T03:37:10;19.00;99.90
13610;DHT22;6876;50.788;4.940;2022-08-03T03:39:57;18.90;99.90
13610;DHT22;6876;50.788;4.940;2022-08-03T03:42:45;18.90;99.90
13610;DHT22;6876;50.788;4.940;2022-08-03T03:45:34;18.80;99.90
13610;DHT22;6876;50.788;4.940;2022-08-03T03:48:21;18.80;99.90
13610;DHT22;6876;50.788;4.940;2022-08-03T03:51:10;18.80;99.90
13610;DHT22;6876;50.788;4.940;2022-08-03T03:53:59;18.80;99.90
13610;DHT22;6876;50.788;4.940;2022-08-03T03:56:46;18.90;99.90
13610;DHT22;6876;50.788;4.940;2022-08-03T03:59:36;18.90;99.90
13610;DHT22;6876;50.788;4.940;2022-08-03T04:02:25;18.80;99.90
13610;DHT22;6876;50.788;4.940;2022-08-03T04:05:13;18.80;99.90
13610;DHT22;6876;50.788;4.940;2022-08-03T04:08:18;18.80;99.90
13610;DHT22;6876;50.788;4.940;2022-08-03T04:11:26;18.80;99.90
13610;DHT22;6876;50.788;4.940;2022-08-03T04:14:17;18.80;99.90
13610;DHT22;6876;50.788;4.940;2022-08-03T04:17:07;18.90;99.90
13610;DHT22;6876;50.788;4.940;2022-08-03T04:19:58;18.80;99.90
13610;DHT22;6876;50.788;4.940;2022-08-03T04:22:47;18.80;99.90
13610;DHT22;6876;50.788;4.940;2022-08-03T04:25:37;18.90;99.90
13610;DHT22;6876;50.788;4.940;2022-08-03T04:28:26;18.90;99.90
13610;DHT22;6876;50.788;4.940;2022-08-03T04:31:15;18.80;99.90
13610;DHT22;6876;50.788;4.940;2022-08-03T04:34:04;18.70;99.90
13610;DHT22;6876;50.788;4.940;2022-08-03T04:36:56;18.80;99.90
13610;DHT22;6876;50.788;4.940;2022-08-03T04:39:44;18.80;99.90
13610;DHT22;6876;50.788;4.940;2022-08-03T04:42:35;18.80;99.90
13610;DHT22;6876;50.788;4.940;2022-08-03T04:45:24;18.70;99.90
13610;DHT22;6876;50.788;4.940;2022-08-03T04:48:13;18.70;99.90
13610;DHT22;6876;50.788;4.940;2022-08-03T04:51:01;19.20;99.90
13610;DHT22;6876;50.788;4.940;2022-08-03T04:53:50;19.70;99.90
13610;DHT22;6876;50.788;4.940;2022-08-03T04:56:39;20.10;99.90
13610;DHT22;6876;50.788;4.940;2022-08-03T04:59:26;20.20;99.90
13610;DHT22;6876;50.788;4.940;2022-08-03T05:02:13;20.40;99.90
13610;DHT22;6876;50.788;4.940;2022-08-03T05:05:00;20.40;99.90
13610;DHT22;6876;50.788;4.940;2022-08-03T05:07:48;20.70;99.90
13610;DHT22;6876;50.788;4.940;2022-08-03T05:10:36;21.00;99.90
13610;DHT22;6876;50.788;4.940;2022-08-03T05:13:23;21.10;99.90
13610;DHT22;6876;50.788;4.940;2022-08-03T05:16:10;21.40;99.90
13610;DHT22;6876;50.788;4.940;2022-08-03T05:18:58;22.00;99.90
13610;DHT22;6876;50.788;4.940;2022-08-03T05:21:45;22.70;99.90
13610;DHT22;6876;50.788;4.940;2022-08-03T05:24:33;23.30;99.90
13610;DHT22;6876;50.788;4.940;2022-08-03T05:27:21;23.90;99.90
13610;DHT22;6876;50.788;4.940;2022-08-03T05:30:09;24.30;99.90
13610;DHT22;6876;50.788;4.940;2022-08-03T05:32:56;24.80;99.90
13610;DHT22;6876;50.788;4.940;2022-08-03T05:35:44;25.00;99.90
13610;DHT22;6876;50.788;4.940;2022-08-03T05:38:32;25.30;99.90
13610;DHT22;6876;50.788;4.940;2022-08-03T05:41:19;25.70;99.90
13610;DHT22;6876;50.788;4.940;2022-08-03T05:44:07;26.00;99.90
13610;DHT22;6876;50.788;4.940;2022-08-03T05:46:55;26.30;99.90
13610;DHT22;6876;50.788;4.940;2022-08-03T05:49:42;26.40;99.90
13610;DHT22;6876;50.788;4.940;2022-08-03T05:52:29;26.80;99.90
13610;DHT22;6876;50.788;4.940;2022-08-03T05:55:16;27.20;99.90
13610;DHT22;6876;50.788;4.940;2022-08-03T05:58:04;27.50;99.90
13610;DHT22;6876;50.788;4.940;2022-08-03T06:00:52;27.70;99.90
13610;DHT22;6876;50.788;4.940;2022-08-03T06:03:39;27.80;99.90
13610;DHT22;6876;50.788;4.940;2022-08-03T06:06:27;28.10;99.90
13610;DHT22;6876;50.788;4.940;2022-08-03T06:09:14;28.40;99.90
13610;DHT22;6876;50.788;4.940;2022-08-03T06:12:01;28.70;99.90
13610;DHT22;6876;50.788;4.940;2022-08-03T06:14:48;28.90;99.90
13610;DHT22;6876;50.788;4.940;2022-08-03T06:17:45;29.00;99.90
13610;DHT22;6876;50.788;4.940;2022-08-03T06:20:32;29.20;99.90
13610;DHT22;6876;50.788;4.940;2022-08-03T06:23:20;29.50;99.90
13610;DHT22;6876;50.788;4.940;2022-08-03T06:26:07;29.70;99.90
13610;DHT22;6876;50.788;4.940;2022-08-03T06:28:54;30.00;99.90
13610;DHT22;6876;50.788;4.940;2022-08-03T06:31:42;30.10;99.90
13610;DHT22;6876;50.788;4.940;2022-08-03T06:34:30;30.40;99.90
13610;DHT22;6876;50.788;4.940;2022-08-03T06:37:18;30.80;99.90
13610;DHT22;6876;50.788;4.940;2022-08-03T06:40:05;31.30;99.90
13610;DHT22;6876;50.788;4.940;2022-08-03T06:42:53;31.50;99.90
13610;DHT22;6876;50.788;4.940;2022-08-03T06:45:40;31.60;99.90
13610;DHT22;6876;50.788;4.940;2022-08-03T06:48:28;31.70;99.90
13610;DHT22;6876;50.788;4.940;2022-08-03T06:51:16;31.70;99.90
13610;DHT22;6876;50.788;4.940;2022-08-03T06:54:04;31.80;99.90
13610;DHT22;6876;50.788;4.940;2022-08-03T06:56:51;32.40;99.90
13610;DHT22;6876;50.788;4.940;2022-08-03T06:59:38;32.60;99.90
13610;DHT22;6876;50.788;4.940;2022-08-03T07:02:26;32.80;99.90
13610;DHT22;6876;50.788;4.940;2022-08-03T07:05:13;33.10;99.90
13610;DHT22;6876;50.788;4.940;2022-08-03T07:08:02;33.30;99.90
13610;DHT22;6876;50.788;4.940;2022-08-03T07:10:50;33.60;99.90
13610;DHT22;6876;50.788;4.940;2022-08-03T07:13:37;33.40;99.90
13610;DHT22;6876;50.788;4.940;2022-08-03T07:16:26;33.60;99.90
13610;DHT22;6876;50.788;4.940;2022-08-03T07:19:13;33.70;99.90
13610;DHT22;6876;50.788;4.940;2022-08-03T07:22:00;34.10;99.70
13610;DHT22;6876;50.788;4.940;2022-08-03T07:24:49;34.30;98.80
13610;DHT22;6876;50.788;4.940;2022-08-03T07:27:36;34.50;98.00
13610;DHT22;6876;50.788;4.940;2022-08-03T07:30:24;34.50;98.10
13610;DHT22;6876;50.788;4.940;2022-08-03T07:33:11;34.60;98.10
13610;DHT22;6876;50.788;4.940;2022-08-03T07:35:58;34.90;97.40
13610;DHT22;6876;50.788;4.940;2022-08-03T07:38:45;35.00;96.70
13610;DHT22;6876;50.788;4.940;2022-08-03T07:41:34;35.30;96.70
13610;DHT22;6876;50.788;4.940;2022-08-03T07:44:22;35.60;96.30
13610;DHT22;6876;50.788;4.940;2022-08-03T07:47:09;35.80;95.50
13610;DHT22;6876;50.788;4.940;2022-08-03T07:49:56;35.90;95.40
13610;DHT22;6876;50.788;4.940;2022-08-03T07:52:44;36.10;94.60
13610;DHT22;6876;50.788;4.940;2022-08-03T07:55:34;36.00;94.50
13610;DHT22;6876;50.788;4.940;2022-08-03T07:58:22;36.00;93.50
13610;DHT22;6876;50.788;4.940;2022-08-03T08:01:10;35.90;93.20
13610;DHT22;6876;50.788;4.940;2022-08-03T08:03:57;36.20;93.30
13610;DHT22;6876;50.788;4.940;2022-08-03T08:06:44;36.70;92.00
13610;DHT22;6876;50.788;4.940;2022-08-03T08:09:31;36.90;91.30
13610;DHT22;6876;50.788;4.940;2022-08-03T08:12:19;36.40;90.90
13610;DHT22;6876;50.788;4.940;2022-08-03T08:15:08;35.90;91.00
13610;DHT22;6876;50.788;4.940;2022-08-03T08:17:56;35.80;91.60
13610;DHT22;6876;50.788;4.940;2022-08-03T08:20:44;36.40;91.10
13610;DHT22;6876;50.788;4.940;2022-08-03T08:23:31;36.60;90.30
13610;DHT22;6876;50.788;4.940;2022-08-03T08:26:18;36.80;90.20
13610;DHT22;6876;50.788;4.940;2022-08-03T08:29:05;37.20;89.60
13610;DHT22;6876;50.788;4.940;2022-08-03T08:31:54;37.40;87.50
13610;DHT22;6876;50.788;4.940;2022-08-03T08:34:41;37.10;87.80
13610;DHT22;6876;50.788;4.940;2022-08-03T08:37:29;36.60;88.10
13610;DHT22;6876;50.788;4.940;2022-08-03T08:40:16;36.50;89.20
13610;DHT22;6876;50.788;4.940;2022-08-03T08:43:06;36.60;87.90
13610;DHT22;6876;50.788;4.940;2022-08-03T08:45:55;37.00;89.00
13610;DHT22;6876;50.788;4.940;2022-08-03T08:48:45;37.00;87.30
13610;DHT22;6876;50.788;4.940;2022-08-03T08:51:34;36.90;88.40
13610;DHT22;6876;50.788;4.940;2022-08-03T08:54:23;36.60;87.60
13610;DHT22;6876;50.788;4.940;2022-08-03T08:57:11;36.90;87.60
13610;DHT22;6876;50.788;4.940;2022-08-03T08:59:59;37.00;86.50
13610;DHT22;6876;50.788;4.940;2022-08-03T09:02:47;37.30;85.00
13610;DHT22;6876;50.788;4.940;2022-08-03T09:05:36;37.00;85.10
13610;DHT22;6876;50.788;4.940;2022-08-03T09:08:23;37.40;84.60
13610;DHT22;6876;50.788;4.940;2022-08-03T09:11:10;37.70;82.90
13610;DHT22;6876;50.788;4.940;2022-08-03T09:13:58;37.60;82.80
13610;DHT22;6876;50.788;4.940;2022-08-03T09:16:55;38.20;82.20
13610;DHT22;6876;50.788;4.940;2022-08-03T09:20:03;38.70;80.50
13610;DHT22;6876;50.788;4.940;2022-08-03T09:22:55;38.20;80.40
13610;DHT22;6876;50.788;4.940;2022-08-03T09:25:43;38.00;80.90
13610;DHT22;6876;50.788;4.940;2022-08-03T09:28:34;37.80;81.40
13610;DHT22;6876;50.788;4.940;2022-08-03T09:31:29;38.70;80.50
13610;DHT22;6876;50.788;4.940;2022-08-03T09:34:17;39.10;78.30
13610;DHT22;6876;50.788;4.940;2022-08-03T09:37:12;39.40;78.00
13610;DHT22;6876;50.788;4.940;2022-08-03T09:40:01;39.90;77.20
13610;DHT22;6876;50.788;4.940;2022-08-03T09:42:55;39.50;76.80
13610;DHT22;6876;50.788;4.940;2022-08-03T09:45:43;39.40;76.40
13610;DHT22;6876;50.788;4.940;2022-08-03T09:48:31;39.00;76.40
13610;DHT22;6876;50.788;4.940;2022-08-03T09:51:23;38.70;77.80
13610;DHT22;6876;50.788;4.940;2022-08-03T09:54:10;38.40;78.80
13610;DHT22;6876;50.788;4.940;2022-08-03T09:56:59;38.00;79.20
13610;DHT22;6876;50.788;4.940;2022-08-03T09:59:46;37.50;80.60
13610;DHT22;6876;50.788;4.940;2022-08-03T10:02:33;37.50;81.30
13610;DHT22;6876;50.788;4.940;2022-08-03T10:05:31;37.50;79.40
13610;DHT22;6876;50.788;4.940;2022-08-03T10:08:19;37.70;80.00
13610;DHT22;6876;50.788;4.940;2022-08-03T10:11:06;37.70;80.10
13610;DHT22;6876;50.788;4.940;2022-08-03T10:13:55;37.70;79.70
13610;DHT22;6876;50.788;4.940;2022-08-03T10:16:42;37.60;79.80
13610;DHT22;6876;50.788;4.940;2022-08-03T10:19:30;38.00;78.40
13610;DHT22;6876;50.788;4.940;2022-08-03T10:22:20;37.30;79.40
13610;DHT22;6876;50.788;4.940;2022-08-03T10:25:11;36.80;80.30
13610;DHT22;6876;50.788;4.940;2022-08-03T10:27:59;36.80;80.20
13610;DHT22;6876;50.788;4.940;2022-08-03T10:30:52;37.20;80.20
13610;DHT22;6876;50.788;4.940;2022-08-03T10:33:43;37.20;79.80
13610;DHT22;6876;50.788;4.940;2022-08-03T10:36:33;37.60;79.40
13610;DHT22;6876;50.788;4.940;2022-08-03T10:39:26;38.20;78.80
13610;DHT22;6876;50.788;4.940;2022-08-03T10:42:14;37.70;78.00
13610;DHT22;6876;50.788;4.940;2022-08-03T10:45:04;37.80;77.30
13610;DHT22;6876;50.788;4.940;2022-08-03T10:47:55;37.20;77.80
13610;DHT22;6876;50.788;4.940;2022-08-03T10:50:43;37.20;78.50
13610;DHT22;6876;50.788;4.940;2022-08-03T10:53:34;36.90;78.60
13610;DHT22;6876;50.788;4.940;2022-08-03T10:56:38;37.00;79.10
13610;DHT22;6876;50.788;4.940;2022-08-03T10:59:57;37.10;79.20
13610;DHT22;6876;50.788;4.940;2022-08-03T11:03:04;36.70;78.90
13610;DHT22;6876;50.788;4.940;2022-08-03T11:05:52;36.80;79.90
13610;DHT22;6876;50.788;4.940;2022-08-03T11:08:40;36.80;79.60
13610;DHT22;6876;50.788;4.940;2022-08-03T11:11:27;36.60;78.40
13610;DHT22;6876;50.788;4.940;2022-08-03T11:14:17;36.70;78.40
13610;DHT22;6876;50.788;4.940;2022-08-03T11:17:06;36.90;78.20
13610;DHT22;6876;50.788;4.940;2022-08-03T11:19:56;37.20;77.20
13610;DHT22;6876;50.788;4.940;2022-08-03T11:22:47;36.70;79.10
13610;DHT22;6876;50.788;4.940;2022-08-03T11:29:26;36.10;80.20
13610;DHT22;6876;50.788;4.940;2022-08-03T11:32:53;36.20;79.30
13610;DHT22;6876;50.788;4.940;2022-08-03T11:35:57;35.90;79.20
13610;DHT22;6876;50.788;4.940;2022-08-03T11:39:12;36.10;79.70
13610;DHT22;6876;50.788;4.940;2022-08-03T11:41:59;36.20;80.30
13610;DHT22;6876;50.788;4.940;2022-08-03T11:44:47;36.20;79.90
13610;DHT22;6876;50.788;4.940;2022-08-03T11:47:37;36.20;80.10
13610;DHT22;6876;50.788;4.940;2022-08-03T11:50:25;36.30;78.10
13610;DHT22;6876;50.788;4.940;2022-08-03T11:53:15;36.10;78.90
13610;DHT22;6876;50.788;4.940;2022-08-03T11:56:03;35.80;79.80
13610;DHT22;6876;50.788;4.940;2022-08-03T11:58:52;35.70;79.50
13610;DHT22;6876;50.788;4.940;2022-08-03T12:01:40;35.90;79.50
13610;DHT22;6876;50.788;4.940;2022-08-03T12:04:27;35.30;79.40
13610;DHT22;6876;50.788;4.940;2022-08-03T12:07:14;35.00;80.30
13610;DHT22;6876;50.788;4.940;2022-08-03T12:10:08;35.10;80.40
13610;DHT22;6876;50.788;4.940;2022-08-03T12:12:57;35.50;79.30
13610;DHT22;6876;50.788;4.940;2022-08-03T12:15:50;35.90;78.60
13610;DHT22;6876;50.788;4.940;2022-08-03T12:18:38;36.10;79.40
13610;DHT22;6876;50.788;4.940;2022-08-03T12:21:25;35.80;80.10
13610;DHT22;6876;50.788;4.940;2022-08-03T12:24:13;35.80;79.20
13610;DHT22;6876;50.788;4.940;2022-08-03T12:27:01;35.80;80.10
13610;DHT22;6876;50.788;4.940;2022-08-03T12:29:50;36.00;79.20
13610;DHT22;6876;50.788;4.940;2022-08-03T12:32:38;35.40;79.40
13610;DHT22;6876;50.788;4.940;2022-08-03T12:35:25;35.40;79.60
13610;DHT22;6876;50.788;4.940;2022-08-03T12:38:12;35.40;80.00
13610;DHT22;6876;50.788;4.940;2022-08-03T12:41:02;35.40;79.30
13610;DHT22;6876;50.788;4.940;2022-08-03T12:43:51;35.50;78.20
13610;DHT22;6876;50.788;4.940;2022-08-03T12:46:40;35.30;79.60
13610;DHT22;6876;50.788;4.940;2022-08-03T12:49:43;35.30;79.50
13610;DHT22;6876;50.788;4.940;2022-08-03T12:52:42;35.20;79.80
13610;DHT22;6876;50.788;4.940;2022-08-03T12:55:30;35.50;78.80
13610;DHT22;6876;50.788;4.940;2022-08-03T12:58:28;35.50;78.80
13610;DHT22;6876;50.788;4.940;2022-08-03T13:01:20;35.40;78.60
13610;DHT22;6876;50.788;4.940;2022-08-03T13:04:09;35.00;78.80
13610;DHT22;6876;50.788;4.940;2022-08-03T13:06:57;34.80;79.50
13610;DHT22;6876;50.788;4.940;2022-08-03T13:09:46;35.00;79.40
13610;DHT22;6876;50.788;4.940;2022-08-03T13:12:45;35.10;77.90
13610;DHT22;6876;50.788;4.940;2022-08-03T13:15:32;35.40;78.70
13610;DHT22;6876;50.788;4.940;2022-08-03T13:18:20;35.50;78.80
13610;DHT22;6876;50.788;4.940;2022-08-03T13:21:08;35.40;79.20
13610;DHT22;6876;50.788;4.940;2022-08-03T13:23:55;35.30;78.80
13610;DHT22;6876;50.788;4.940;2022-08-03T13:26:42;35.40;79.00
13610;DHT22;6876;50.788;4.940;2022-08-03T13:29:29;35.40;79.90
13610;DHT22;6876;50.788;4.940;2022-08-03T13:32:17;35.50;79.40
13610;DHT22;6876;50.788;4.940;2022-08-03T13:35:06;35.50;77.90
13610;DHT22;6876;50.788;4.940;2022-08-03T13:37:54;35.10;76.90
13610;DHT22;6876;50.788;4.940;2022-08-03T13:40:41;34.80;77.80
13610;DHT22;6876;50.788;4.940;2022-08-03T13:43:28;34.60;78.50
13610;DHT22;6876;50.788;4.940;2022-08-03T13:46:15;34.40;78.90
13610;DHT22;6876;50.788;4.940;2022-08-03T13:49:03;34.70;79.50
13610;DHT22;6876;50.788;4.940;2022-08-03T13:51:52;34.60;78.00
13610;DHT22;6876;50.788;4.940;2022-08-03T13:54:40;34.70;78.50
13610;DHT22;6876;50.788;4.940;2022-08-03T13:57:27;34.70;79.80
13610;DHT22;6876;50.788;4.940;2022-08-03T14:00:15;34.70;80.30
13610;DHT22;6876;50.788;4.940;2022-08-03T14:03:03;34.50;78.20
13610;DHT22;6876;50.788;4.940;2022-08-03T14:05:50;34.70;77.40
13610;DHT22;6876;50.788;4.940;2022-08-03T14:08:39;34.60;77.50
13610;DHT22;6876;50.788;4.940;2022-08-03T14:11:26;34.90;75.20
13610;DHT22;6876;50.788;4.940;2022-08-03T14:14:14;35.00;76.30
13610;DHT22;6876;50.788;4.940;2022-08-03T14:17:01;35.00;77.80
13610;DHT22;6876;50.788;4.940;2022-08-03T14:19:48;35.00;76.80
13610;DHT22;6876;50.788;4.940;2022-08-03T14:22:35;34.90;78.70
13610;DHT22;6876;50.788;4.940;2022-08-03T14:25:24;34.60;77.60
13610;DHT22;6876;50.788;4.940;2022-08-03T14:28:11;34.40;78.50
13610;DHT22;6876;50.788;4.940;2022-08-03T14:30:58;34.30;79.70
13610;DHT22;6876;50.788;4.940;2022-08-03T14:33:45;34.20;79.40
13610;DHT22;6876;50.788;4.940;2022-08-03T14:36:33;34.50;78.50
13610;DHT22;6876;50.788;4.940;2022-08-03T14:39:20;34.40;77.70
13610;DHT22;6876;50.788;4.940;2022-08-03T14:42:08;34.30;79.10
13610;DHT22;6876;50.788;4.940;2022-08-03T14:44:56;34.50;78.40
13610;DHT22;6876;50.788;4.940;2022-08-03T14:47:43;34.40;77.90
13610;DHT22;6876;50.788;4.940;2022-08-03T14:50:30;34.40;77.80
13610;DHT22;6876;50.788;4.940;2022-08-03T14:53:18;34.10;77.80
13610;DHT22;6876;50.788;4.940;2022-08-03T14:56:05;34.30;77.80
13610;DHT22;6876;50.788;4.940;2022-08-03T14:58:53;34.60;76.90
13610;DHT22;6876;50.788;4.940;2022-08-03T15:01:41;34.60;76.90
13610;DHT22;6876;50.788;4.940;2022-08-03T15:04:28;34.60;76.30
13610;DHT22;6876;50.788;4.940;2022-08-03T15:07:15;34.60;76.70
13610;DHT22;6876;50.788;4.940;2022-08-03T15:10:03;34.50;76.90
13610;DHT22;6876;50.788;4.940;2022-08-03T15:12:50;34.60;76.70
13610;DHT22;6876;50.788;4.940;2022-08-03T15:15:40;34.60;77.10
13610;DHT22;6876;50.788;4.940;2022-08-03T15:18:28;34.60;77.20
13610;DHT22;6876;50.788;4.940;2022-08-03T15:21:15;34.50;77.00
13610;DHT22;6876;50.788;4.940;2022-08-03T15:24:02;34.50;78.30
13610;DHT22;6876;50.788;4.940;2022-08-03T15:26:50;34.70;78.30
13610;DHT22;6876;50.788;4.940;2022-08-03T15:29:37;34.70;78.10
13610;DHT22;6876;50.788;4.940;2022-08-03T15:32:26;34.80;76.20
13610;DHT22;6876;50.788;4.940;2022-08-03T15:35:13;35.00;76.60
13610;DHT22;6876;50.788;4.940;2022-08-03T15:38:00;34.80;76.30
13610;DHT22;6876;50.788;4.940;2022-08-03T15:40:47;35.00;76.60
13610;DHT22;6876;50.788;4.940;2022-08-03T15:43:35;35.20;76.20
13610;DHT22;6876;50.788;4.940;2022-08-03T15:46:22;35.00;75.90
13610;DHT22;6876;50.788;4.940;2022-08-03T15:49:11;35.00;75.10
13610;DHT22;6876;50.788;4.940;2022-08-03T15:51:58;34.70;75.10
13610;DHT22;6876;50.788;4.940;2022-08-03T15:54:46;34.50;75.30
13610;DHT22;6876;50.788;4.940;2022-08-03T15:57:33;34.40;75.60
13610;DHT22;6876;50.788;4.940;2022-08-03T16:00:20;34.40;76.30
13610;DHT22;6876;50.788;4.940;2022-08-03T16:03:07;34.40;76.00
13610;DHT22;6876;50.788;4.940;2022-08-03T16:05:56;34.30;76.00
13610;DHT22;6876;50.788;4.940;2022-08-03T16:08:43;34.30;76.80
13610;DHT22;6876;50.788;4.940;2022-08-03T16:11:31;34.10;76.20
13610;DHT22;6876;50.788;4.940;2022-08-03T16:14:18;34.10;77.70
13610;DHT22;6876;50.788;4.940;2022-08-03T16:17:05;34.20;76.30
13610;DHT22;6876;50.788;4.940;2022-08-03T16:19:52;34.10;75.40
13610;DHT22;6876;50.788;4.940;2022-08-03T16:22:42;34.00;76.00
13610;DHT22;6876;50.788;4.940;2022-08-03T16:25:30;33.90;76.70
13610;DHT22;6876;50.788;4.940;2022-08-03T16:28:17;33.80;76.20
13610;DHT22;6876;50.788;4.940;2022-08-03T16:31:05;33.80;76.50
13610;DHT22;6876;50.788;4.940;2022-08-03T16:33:54;33.80;77.00
13610;DHT22;6876;50.788;4.940;2022-08-03T16:36:41;33.70;76.50
13610;DHT22;6876;50.788;4.940;2022-08-03T16:39:30;33.80;76.80
13610;DHT22;6876;50.788;4.940;2022-08-03T16:42:17;33.90;76.60
13610;DHT22;6876;50.788;4.940;2022-08-03T16:45:06;33.90;76.40
13610;DHT22;6876;50.788;4.940;2022-08-03T16:47:54;33.90;76.50
13610;DHT22;6876;50.788;4.940;2022-08-03T16:50:41;33.80;77.40
13610;DHT22;6876;50.788;4.940;2022-08-03T16:53:29;33.70;77.80
13610;DHT22;6876;50.788;4.940;2022-08-03T16:56:17;33.70;76.80
13610;DHT22;6876;50.788;4.940;2022-08-03T16:59:05;33.70;77.00
13610;DHT22;6876;50.788;4.940;2022-08-03T17:01:52;33.70;77.80
13610;DHT22;6876;50.788;4.940;2022-08-03T17:04:39;33.70;77.50
13610;DHT22;6876;50.788;4.940;2022-08-03T17:07:26;33.50;76.80
13610;DHT22;6876;50.788;4.940;2022-08-03T17:10:14;33.50;77.40
13610;DHT22;6876;50.788;4.940;2022-08-03T17:13:02;33.40;78.00
13610;DHT22;6876;50.788;4.940;2022-08-03T17:15:50;33.40;78.50
13610;DHT22;6876;50.788;4.940;2022-08-03T17:18:44;33.40;78.80
13610;DHT22;6876;50.788;4.940;2022-08-03T17:21:34;33.30;78.90
13610;DHT22;6876;50.788;4.940;2022-08-03T17:24:26;33.20;80.00
13610;DHT22;6876;50.788;4.940;2022-08-03T17:27:15;33.20;79.90
13610;DHT22;6876;50.788;4.940;2022-08-03T17:30:07;33.20;80.10
13610;DHT22;6876;50.788;4.940;2022-08-03T17:32:55;33.10;80.50
13610;DHT22;6876;50.788;4.940;2022-08-03T17:35:43;33.10;79.00
13610;DHT22;6876;50.788;4.940;2022-08-03T17:38:30;33.20;79.00
13610;DHT22;6876;50.788;4.940;2022-08-03T17:41:18;33.10;79.60
13610;DHT22;6876;50.788;4.940;2022-08-03T17:44:06;33.00;80.30
13610;DHT22;6876;50.788;4.940;2022-08-03T17:46:55;32.90;80.70
13610;DHT22;6876;50.788;4.940;2022-08-03T17:49:42;32.90;81.90
13610;DHT22;6876;50.788;4.940;2022-08-03T17:52:34;32.80;82.50
13610;DHT22;6876;50.788;4.940;2022-08-03T17:55:22;32.80;84.40
13610;DHT22;6876;50.788;4.940;2022-08-03T17:58:18;32.60;84.60
13610;DHT22;6876;50.788;4.940;2022-08-03T18:01:13;32.50;82.00
13610;DHT22;6876;50.788;4.940;2022-08-03T18:04:25;32.40;81.40
13610;DHT22;6876;50.788;4.940;2022-08-03T18:07:15;32.30;84.20
13610;DHT22;6876;50.788;4.940;2022-08-03T18:10:06;32.10;84.40